Time;durP1;ratioP1;P1;durP2;ratioP2;P2;SDS_P1;SDS_P2;PMS_P1;PMS_P2;Temp;Humidity;BMP_temperature;BMP_pressure;BME280_temperature;BME280_humidity;BME280_pressure;Samples;Min_cycle;Max_cycle;Signal;HPM_P1;HPM_P2
2023/05/25 00:03:11;;;;;;;4.30;1.90;;;;;;;7.83;58.25;100686.09;10341774;28;20043;-58
2023/05/25 00:08:13;;;;;;;2.60;1.60;;;;;;;7.75;58.34;100694.16;10320985;28;20060;-58
2023/05/25 00:13:14;;;;;;;3.80;2.03;;;;;;;7.80;58.32;100696.59;10387914;28;20044;-58
2023/05/25 00:18:17;;;;;;;3.35;1.60;;;;;;;7.57;58.74;100696.59;10300996;28;20046;-58
2023/05/25 00:23:20;;;;;;;2.63;1.40;;;;;;;7.71;58.61;100696.94;10300538;28;20179;-58
2023/05/25 00:28:22;;;;;;;7.47;1.40;;;;;;;7.70;58.42;100690.88;10322129;28;20482;-57
2023/05/25 00:33:24;;;;;;;2.83;1.40;;;;;;;7.68;58.49;100689.22;10379155;28;20047;-58
2023/05/25 00:38:27;;;;;;;1.85;1.35;;;;;;;7.69;58.38;100683.13;10366890;28;20463;-58
2023/05/25 00:43:29;;;;;;;2.45;1.40;;;;;;;7.46;58.45;100681.34;10331854;28;20046;-58
2023/05/25 00:48:32;;;;;;;3.05;1.48;;;;;;;7.59;58.63;100677.38;10362104;28;20039;-58
2023/05/25 00:53:35;;;;;;;2.75;1.58;;;;;;;7.56;58.71;100676.66;10315696;28;20041;-58
2023/05/25 00:58:40;;;;;;;2.55;1.40;;;;;;;7.53;58.68;100682.81;10358612;28;20045;-58
2023/05/25 01:03:47;;;;;;;2.70;1.60;;;;;;;7.54;58.97;100679.31;10342376;28;20040;-57
2023/05/25 01:08:52;;;;;;;3.33;1.75;;;;;;;7.51;58.76;100674.22;10352107;28;20050;-58
2023/05/25 01:13:56;;;;;;;3.08;1.60;;;;;;;7.41;58.68;100674.59;10375123;28;20519;-58
2023/05/25 01:19:01;;;;;;;4.75;1.65;;;;;;;7.27;58.91;100666.41;10289230;28;20054;-58
2023/05/25 01:24:07;;;;;;;3.22;1.42;;;;;;;7.20;59.71;100668.41;10344037;28;20038;-58
2023/05/25 01:29:10;;;;;;;2.55;1.50;;;;;;;7.13;59.20;100664.28;10348592;28;20435;-58
2023/05/25 01:34:14;;;;;;;1.95;1.40;;;;;;;7.13;59.25;100666.88;10377822;28;20038;-58
2023/05/25 01:39:15;;;;;;;1.88;1.38;;;;;;;7.09;59.44;100665.28;10355725;28;20425;-58
2023/05/25 01:44:18;;;;;;;2.78;1.55;;;;;;;6.97;59.49;100666.56;10379565;28;20042;-58
2023/05/25 01:49:26;;;;;;;3.47;1.80;;;;;;;6.97;59.94;100668.31;10321467;28;20054;-58
2023/05/25 01:54:44;;;;;;;4.32;1.83;;;;;;;7.03;59.59;100668.09;10298148;28;20066;-58
2023/05/25 01:59:50;;;;;;;3.33;1.65;;;;;;;6.94;59.59;100666.66;10317376;28;20039;-58
2023/05/25 02:04:53;;;;;;;2.50;1.48;;;;;;;6.90;59.58;100665.06;10336175;28;20088;-58
2023/05/25 02:09:56;;;;;;;3.15;1.65;;;;;;;6.86;59.45;100666.06;10332624;28;20465;-58
2023/05/25 02:15:00;;;;;;;3.10;1.73;;;;;;;6.82;59.33;100661.00;10397983;28;20107;-58
2023/05/25 02:20:05;;;;;;;2.85;1.50;;;;;;;6.81;59.59;100664.53;10357909;28;20053;-58
2023/05/25 02:25:07;;;;;;;2.25;1.45;;;;;;;6.75;59.55;100669.91;10355136;28;20042;-58
2023/05/25 02:30:10;;;;;;;2.17;1.30;;;;;;;6.63;59.62;100662.53;10343276;28;20042;-58
2023/05/25 02:35:12;;;;;;;2.38;1.50;;;;;;;6.60;59.80;100670.41;10349690;28;20057;-58
2023/05/25 02:40:14;;;;;;;2.58;1.50;;;;;;;6.51;60.05;100670.72;10337151;28;20046;-58
2023/05/25 02:45:15;;;;;;;2.60;1.52;;;;;;;6.59;59.82;100673.91;10350296;28;20046;-58
2023/05/25 02:50:17;;;;;;;1.98;1.33;;;;;;;6.54;60.00;100671.44;10406321;28;20057;-58
2023/05/25 02:55:24;;;;;;;3.38;1.50;;;;;;;6.54;59.89;100670.59;10350322;28;20054;-58
2023/05/25 03:00:27;;;;;;;2.88;1.45;;;;;;;6.51;59.85;100670.72;10352146;28;20054;-58
2023/05/25 03:05:34;;;;;;;2.08;1.40;;;;;;;6.48;59.78;100681.19;10317196;28;20433;-58
2023/05/25 03:10:36;;;;;;;1.88;1.30;;;;;;;6.45;60.00;100683.88;10327576;28;20049;-57
2023/05/25 03:15:40;;;;;;;2.13;1.50;;;;;;;6.43;59.82;100683.91;10317560;28;20069;-58
2023/05/25 03:20:42;;;;;;;2.05;1.40;;;;;;;6.48;59.80;100691.56;10436264;28;20046;-59
2023/05/25 03:25:45;;;;;;;2.45;1.55;;;;;;;6.50;59.79;100684.56;10516662;28;20551;-58
2023/05/25 03:30:47;;;;;;;2.03;1.40;;;;;;;6.40;59.91;100691.81;10344773;28;20050;-59
2023/05/25 03:35:49;;;;;;;3.67;1.40;;;;;;;6.42;59.90;100686.56;10314317;28;20510;-57
2023/05/25 03:40:51;;;;;;;2.50;1.20;;;;;;;6.52;59.71;100681.03;10325719;28;20090;-58
2023/05/25 03:45:53;;;;;;;2.17;1.33;;;;;;;6.56;59.57;100690.44;10403178;28;20044;-58
2023/05/25 03:50:55;;;;;;;2.00;1.38;;;;;;;6.61;59.46;100688.56;10397147;28;20050;-57
2023/05/25 03:55:57;;;;;;;2.95;1.65;;;;;;;6.66;59.36;100704.84;10340522;28;20054;-58
2023/05/25 04:00:59;;;;;;;2.20;1.35;;;;;;;6.80;59.08;100712.19;10349996;28;20410;-59
2023/05/25 04:06:03;;;;;;;2.03;1.50;;;;;;;6.84;58.85;100722.47;10298822;28;20137;-58
2023/05/25 04:11:04;;;;;;;4.25;1.95;;;;;;;7.02;58.67;100721.03;10365901;28;20049;-58
2023/05/25 04:16:06;;;;;;;2.20;1.40;;;;;;;7.26;58.56;100717.63;10473519;28;20792;-58
2023/05/25 04:21:10;;;;;;;2.15;1.35;;;;;;;8.35;57.27;100719.72;10409236;28;20065;-58
2023/05/25 04:26:14;;;;;;;3.03;1.42;;;;;;;10.07;54.54;100709.03;10332054;28;20415;-58
2023/05/25 04:31:17;;;;;;;2.35;1.50;;;;;;;11.72;51.54;100714.88;10389646;28;20539;-59
2023/05/25 04:36:37;;;;;;;2.40;1.40;;;;;;;13.00;49.50;100714.81;10343562;28;20129;-58
2023/05/25 04:41:41;;;;;;;2.13;1.40;;;;;;;14.35;47.43;100721.50;10357571;28;20491;-59
2023/05/25 04:46:44;;;;;;;2.58;1.50;;;;;;;15.10;45.68;100710.47;10335834;28;20045;-59
2023/05/25 04:51:52;;;;;;;2.63;1.60;;;;;;;15.63;45.07;100718.31;10312405;28;20047;-58
2023/05/25 04:56:54;;;;;;;2.63;1.50;;;;;;;16.65;43.29;100726.00;10347638;28;20046;-58
2023/05/25 05:01:56;;;;;;;2.38;1.55;;;;;;;17.21;42.44;100732.41;10344395;28;20154;-59
2023/05/25 05:06:58;;;;;;;5.03;1.65;;;;;;;17.16;41.80;100745.13;10307580;28;20104;-58
2023/05/25 05:12:03;;;;;;;2.88;1.58;;;;;;;17.38;41.06;100758.47;10415651;28;20055;-59
2023/05/25 05:17:11;;;;;;;2.85;1.50;;;;;;;17.55;40.77;100765.97;10451108;28;20076;-58
2023/05/25 05:22:14;;;;;;;2.40;1.60;;;;;;;18.07;40.01;100762.00;10388143;28;20046;-59
2023/05/25 05:27:18;;;;;;;2.78;1.50;;;;;;;17.29;40.32;100771.50;10331656;28;20141;-58
2023/05/25 05:32:26;;;;;;;2.75;1.73;;;;;;;15.33;42.53;100783.56;10330323;28;20054;-59
2023/05/25 05:37:29;;;;;;;3.75;1.67;;;;;;;14.21;44.19;100801.28;10315173;28;20296;-59
2023/05/25 05:42:31;;;;;;;4.28;1.80;;;;;;;13.46;45.80;100800.56;10400453;28;20413;-58
2023/05/25 05:47:33;;;;;;;4.57;1.52;;;;;;;13.10;46.59;100798.25;10336125;28;20056;-58
2023/05/25 05:52:35;;;;;;;5.35;2.47;;;;;;;13.08;47.15;100797.47;10319937;28;20044;-59
2023/05/25 05:57:37;;;;;;;20.75;7.80;;;;;;;13.15;47.06;100798.00;10304995;28;20042;-58
2023/05/25 06:02:40;;;;;;;6.28;2.35;;;;;;;12.85;47.65;100809.25;10402673;28;20070;-58
2023/05/25 06:07:44;;;;;;;4.05;2.10;;;;;;;12.99;47.99;100805.84;10323222;28;20103;-58
2023/05/25 06:12:47;;;;;;;4.35;2.17;;;;;;;13.01;48.35;100801.38;10465144;28;20131;-59
2023/05/25 06:17:49;;;;;;;7.13;2.10;;;;;;;13.19;48.89;100795.06;10519026;28;20051;-59
2023/05/25 06:22:52;;;;;;;6.28;1.92;;;;;;;13.13;48.78;100807.72;10427407;28;20095;-59
2023/05/25 06:27:54;;;;;;;4.57;1.80;;;;;;;13.17;49.08;100811.88;10327559;28;20038;-59
2023/05/25 06:32:56;;;;;;;3.67;2.10;;;;;;;13.34;49.38;100801.25;10338984;28;20077;-59
2023/05/25 06:38:00;;;;;;;5.43;2.53;;;;;;;13.23;49.47;100808.91;10344015;28;20045;-59
2023/05/25 06:43:02;;;;;;;7.72;2.47;;;;;;;13.56;49.70;100812.22;10303073;28;20054;-59
2023/05/25 06:48:38;;;;;;;5.78;2.33;;;;;;;13.51;49.82;100814.28;10358727;28;20050;-58
2023/05/25 06:53:40;;;;;;;6.18;2.97;;;;;;;13.71;50.06;100814.84;10321147;28;20042;-59
2023/05/25 06:58:42;;;;;;;5.43;2.65;;;;;;;13.90;49.72;100808.50;10339911;28;20049;-59
2023/05/25 07:03:44;;;;;;;6.72;2.75;;;;;;;13.78;49.88;100807.41;10318408;28;20068;-59
2023/05/25 07:08:46;;;;;;;6.65;2.65;;;;;;;13.91;50.14;100811.00;10355750;28;20065;-59
2023/05/25 07:13:48;;;;;;;7.32;2.97;;;;;;;13.86;50.37;100812.25;10322305;28;20520;-59
2023/05/25 07:18:49;;;;;;;6.28;2.63;;;;;;;13.95;50.12;100811.66;10356147;28;20051;-60
2023/05/25 07:23:51;;;;;;;6.22;2.90;;;;;;;14.74;49.16;100816.41;10534602;28;20067;-59
2023/05/25 07:28:53;;;;;;;5.50;2.88;;;;;;;15.92;48.21;100812.09;10526417;28;20089;-59
2023/05/25 07:33:55;;;;;;;5.45;2.50;;;;;;;17.01;46.74;100796.47;10394572;28;20042;-59
2023/05/25 07:38:57;;;;;;;7.15;3.13;;;;;;;17.66;45.28;100799.56;10321449;28;20058;-59
2023/05/25 07:43:59;;;;;;;6.25;2.50;;;;;;;19.11;43.48;100785.44;10321530;28;20042;-59
2023/05/25 07:49:02;;;;;;;5.78;2.83;;;;;;;19.80;42.35;100784.88;10320760;28;20062;-60
2023/05/25 07:54:04;;;;;;;5.40;2.60;;;;;;;20.56;40.73;100788.94;10303888;28;20072;-60
2023/05/25 07:59:06;;;;;;;6.55;2.72;;;;;;;20.64;39.98;100776.66;10342619;28;20049;-59
2023/05/25 08:04:07;;;;;;;5.47;2.50;;;;;;;19.57;40.94;100787.75;10356994;28;20042;-60
2023/05/25 08:09:12;;;;;;;4.30;2.28;;;;;;;20.06;40.39;100774.69;10347298;28;20381;-60
2023/05/25 08:14:15;;;;;;;5.22;2.20;;;;;;;21.08;39.24;100783.34;10319759;28;20046;-60
2023/05/25 08:19:17;;;;;;;6.10;2.75;;;;;;;21.30;37.25;100768.91;10369837;28;20055;-60
2023/05/25 08:24:19;;;;;;;3.40;2.00;;;;;;;21.05;36.74;100771.16;10530985;28;20495;-60
2023/05/25 08:29:21;;;;;;;5.35;2.17;;;;;;;21.05;36.49;100764.97;10442794;28;20131;-59
2023/05/25 08:34:23;;;;;;;3.10;1.70;;;;;;;20.53;38.13;100768.78;10371524;28;20050;-59
2023/05/25 08:39:25;;;;;;;4.70;2.10;;;;;;;20.31;37.70;100774.28;10530291;28;20408;-59
2023/05/25 08:44:28;;;;;;;3.22;1.73;;;;;;;21.57;36.27;100769.09;10520783;28;20101;-59
2023/05/25 08:49:33;;;;;;;4.10;1.80;;;;;;;21.01;36.74;100771.56;10518003;28;20085;-59
2023/05/25 08:54:36;;;;;;;4.28;2.00;;;;;;;20.51;36.96;100764.56;10529819;28;20040;-59
2023/05/25 08:59:59;;;;;;;5.00;1.95;;;;;;;20.32;35.20;100775.94;10522763;28;20400;-59
2023/05/25 09:05:02;;;;;;;4.50;2.13;;;;;;;20.26;37.14;100771.16;10529578;28;20062;-60
2023/05/25 09:10:06;;;;;;;3.38;2.03;;;;;;;20.16;36.89;100771.13;10525399;28;20054;-60
2023/05/25 09:15:11;;;;;;;4.70;2.20;;;;;;;20.01;35.89;100775.09;10528135;28;20044;-60
2023/05/25 09:20:15;;;;;;;3.67;1.95;;;;;;;20.09;36.61;100779.78;10529224;28;20082;-60
2023/05/25 09:25:21;;;;;;;5.18;1.95;;;;;;;20.35;35.53;100778.34;10433156;28;20485;-60
2023/05/25 09:30:23;;;;;;;3.42;1.83;;;;;;;20.30;35.93;100772.59;10525470;28;20032;-60
2023/05/25 09:35:25;;;;;;;6.38;1.80;;;;;;;21.19;34.60;100772.59;10309995;28;20053;-61
2023/05/25 09:40:31;;;;;;;3.25;1.85;;;;;;;21.14;33.99;100768.63;10527272;28;20660;-60
2023/05/25 09:45:34;;;;;;;3.90;1.65;;;;;;;21.40;34.00;100756.47;10511658;28;20040;-60
2023/05/25 09:50:39;;;;;;;3.58;1.80;;;;;;;21.43;33.64;100769.53;10314359;28;20057;-60
2023/05/25 09:55:40;;;;;;;4.57;1.80;;;;;;;21.26;33.45;100764.84;10325528;28;20059;-60
2023/05/25 10:00:54;;;;;;;4.05;1.80;;;;;;;20.56;33.56;100757.84;10527235;28;20044;-60
2023/05/25 10:05:56;;;;;;;3.70;1.75;;;;;;;20.72;34.46;100752.88;10485397;28;20495;-60
2023/05/25 10:10:59;;;;;;;3.45;2.08;;;;;;;21.12;34.38;100754.63;10317477;28;20046;-60
2023/05/25 10:16:02;;;;;;;3.58;1.60;;;;;;;21.04;33.94;100758.00;10359477;28;20040;-60
2023/05/25 10:21:06;;;;;;;2.97;1.60;;;;;;;20.46;34.49;100753.50;10528970;28;20079;-60
2023/05/25 10:26:12;;;;;;;2.97;1.63;;;;;;;20.40;34.27;100762.84;10482539;28;20040;-60
2023/05/25 10:31:15;;;;;;;3.67;1.70;;;;;;;20.37;34.22;100762.28;10501846;28;20034;-60
2023/05/25 10:36:19;;;;;;;3.08;1.60;;;;;;;21.19;34.70;100755.78;10315279;28;20464;-60
2023/05/25 10:41:21;;;;;;;3.45;1.50;;;;;;;20.42;34.57;100752.91;10319801;28;20054;-60
2023/05/25 10:46:24;;;;;;;3.95;1.70;;;;;;;20.08;34.78;100762.13;10323119;28;20039;-60
2023/05/25 10:51:39;;;;;;;5.50;1.90;;;;;;;19.97;34.35;100756.94;10321978;28;20528;-60
2023/05/25 10:57:19;;;;;;;3.00;1.67;;;;;;;19.88;35.19;100744.41;10354377;28;20047;-60
2023/05/25 11:02:22;;;;;;;2.63;1.40;;;;;;;19.33;34.67;100748.22;10534119;28;20044;-60
2023/05/25 11:07:24;;;;;;;2.25;1.40;;;;;;;19.81;35.37;100737.91;10400988;28;20513;-60
2023/05/25 11:12:26;;;;;;;4.93;1.80;;;;;;;20.29;35.33;100733.72;10442134;28;20059;-60
2023/05/25 11:17:31;;;;;;;2.53;1.50;;;;;;;19.96;35.12;100734.84;10535015;28;20055;-59
2023/05/25 11:22:35;;;;;;;3.03;1.70;;;;;;;20.03;35.44;100728.00;10533722;28;20097;-59
2023/05/25 11:27:45;;;;;;;3.92;1.83;;;;;;;20.15;34.28;100712.84;10341618;28;20038;-60
2023/05/25 11:32:50;;;;;;;4.22;1.80;;;;;;;20.25;35.24;100719.84;10304578;28;20051;-59
2023/05/25 11:37:52;;;;;;;4.88;1.90;;;;;;;20.30;35.46;100714.13;10252864;28;20037;-60
2023/05/25 11:42:56;;;;;;;2.78;1.35;;;;;;;20.01;34.12;100713.19;10308377;28;20370;-60
2023/05/25 11:48:02;;;;;;;2.72;1.60;;;;;;;19.78;35.25;100711.66;10222224;28;20517;-59
2023/05/25 11:53:06;;;;;;;6.53;1.63;;;;;;;19.94;35.47;100707.56;10242496;28;20051;-60
2023/05/25 11:58:08;;;;;;;3.08;1.60;;;;;;;20.26;35.46;100694.13;10314712;28;20121;-60
2023/05/25 12:03:28;;;;;;;3.50;1.70;;;;;;;20.59;34.67;100695.66;10252713;28;20059;-60
2023/05/25 12:08:30;;;;;;;;;;;;;;;20.40;35.16;100684.97;10272500;28;20043;-60
2023/05/25 12:13:32;;;;;;;4.30;1.70;;;;;;;20.20;35.37;100694.66;10248641;28;19935;-60
2023/05/25 12:18:35;;;;;;;4.32;1.80;;;;;;;20.30;35.13;100682.25;10233510;28;20485;-59
2023/05/25 12:23:37;;;;;;;3.88;1.70;;;;;;;20.53;35.22;100678.41;10248315;28;20144;-60
2023/05/25 12:28:40;;;;;;;3.70;1.70;;;;;;;20.36;34.44;100678.25;10237947;28;20045;-60
2023/05/25 12:33:42;;;;;;;3.25;1.50;;;;;;;20.59;34.53;100675.25;10233352;28;20039;-60
2023/05/25 12:38:58;;;;;;;3.03;1.83;;;;;;;20.38;33.84;100663.81;10306837;28;20051;-60
2023/05/25 12:44:00;;;;;;;2.63;1.60;;;;;;;20.83;34.38;100664.19;10275224;28;20058;-60
2023/05/25 12:49:02;;;;;;;4.00;1.60;;;;;;;21.08;33.77;100666.31;10308188;28;20046;-60
2023/05/25 12:54:05;;;;;;;3.35;1.52;;;;;;;21.10;33.82;100656.38;10332136;28;20046;-60
2023/05/25 12:59:14;;;;;;;4.10;1.52;;;;;;;20.98;32.52;100658.34;10324936;28;20050;-60
2023/05/25 13:04:16;;;;;;;3.37;1.57;;;;;;;20.90;33.70;100654.69;10310555;28;20544;-60
2023/05/25 13:09:18;;;;;;;3.40;1.50;;;;;;;21.11;33.15;100646.56;10344766;28;20065;-60
2023/05/25 13:14:20;;;;;;;2.67;1.60;;;;;;;21.37;33.44;100645.88;10388124;28;20060;-60
2023/05/25 13:19:24;;;;;;;3.03;1.42;;;;;;;21.18;32.25;100634.38;10349750;28;20050;-60
2023/05/25 13:24:26;;;;;;;4.50;1.65;;;;;;;21.08;33.45;100634.38;10389846;28;20064;-60
2023/05/25 13:29:28;;;;;;;3.00;1.65;;;;;;;21.25;33.16;100628.34;10386672;28;20058;-59
2023/05/25 13:34:30;;;;;;;3.05;1.67;;;;;;;21.21;33.77;100634.09;10345136;28;20608;-60
2023/05/25 13:39:32;;;;;;;4.03;1.70;;;;;;;21.05;33.40;100648.81;10343206;28;20051;-60
2023/05/25 13:44:34;;;;;;;2.85;1.60;;;;;;;21.17;33.50;100627.38;10371882;28;20057;-60
2023/05/25 13:49:36;;;;;;;3.35;1.80;;;;;;;21.69;33.24;100621.53;10306455;28;20047;-59
2023/05/25 13:54:38;;;;;;;2.80;1.50;;;;;;;21.50;34.12;100624.25;10308874;28;20048;-60
2023/05/25 13:59:41;;;;;;;2.63;1.52;;;;;;;21.71;34.33;100623.06;10387838;28;20050;-60
2023/05/25 14:04:45;;;;;;;2.85;1.60;;;;;;;21.77;33.47;100605.66;10316194;28;20077;-60
2023/05/25 14:09:47;;;;;;;3.30;1.80;;;;;;;21.82;33.74;100608.72;10393885;28;20034;-60
2023/05/25 14:14:50;;;;;;;2.55;1.30;;;;;;;21.71;33.27;100611.56;10346418;28;20537;-60
2023/05/25 14:19:51;;;;;;;5.82;1.35;;;;;;;21.65;32.52;100610.34;10351135;28;20047;-60
2023/05/25 14:24:53;;;;;;;3.20;1.52;;;;;;;21.58;33.48;100609.22;10327849;28;20072;-60
2023/05/25 14:29:55;;;;;;;3.05;1.60;;;;;;;21.81;33.68;100599.06;10423823;28;20050;-60
2023/05/25 14:34:57;;;;;;;2.83;1.58;;;;;;;21.79;32.62;100591.22;10344992;28;20053;-60
2023/05/25 14:39:59;;;;;;;4.32;1.70;;;;;;;21.62;33.47;100589.31;10344092;28;20044;-60
2023/05/25 14:45:01;;;;;;;2.47;1.40;;;;;;;21.68;33.98;100588.72;10392062;28;20558;-60
2023/05/25 14:50:04;;;;;;;3.45;1.80;;;;;;;21.72;32.63;100595.44;10327553;28;20046;-60
2023/05/25 14:55:07;;;;;;;2.35;1.45;;;;;;;21.78;32.22;100594.03;10328124;28;20046;-59
2023/05/25 15:00:10;;;;;;;2.33;1.42;;;;;;;21.76;32.26;100596.00;10322429;28;20050;-60
2023/05/25 15:05:12;;;;;;;3.78;1.95;;;;;;;21.69;32.66;100584.25;10366721;28;20119;-60
2023/05/25 15:10:14;;;;;;;3.17;1.48;;;;;;;22.01;32.41;100579.31;10397791;28;20473;-60
2023/05/25 15:15:15;;;;;;;2.67;1.50;;;;;;;22.09;32.38;100582.09;10325112;28;20049;-60
2023/05/25 15:20:18;;;;;;;6.80;1.80;;;;;;;22.04;32.56;100584.41;10431297;28;20054;-60
2023/05/25 15:25:20;;;;;;;2.90;1.70;;;;;;;22.22;32.90;100581.75;10373448;28;20069;-61
2023/05/25 15:30:35;;;;;;;3.05;1.70;;;;;;;22.63;32.53;100568.69;10326613;28;20106;-60
2023/05/25 15:35:37;;;;;;;2.72;1.50;;;;;;;22.62;32.49;100577.66;10389739;28;20042;-60
2023/05/25 15:40:39;;;;;;;3.03;1.70;;;;;;;22.26;32.18;100572.47;10381173;28;20377;-60
2023/05/25 15:45:41;;;;;;;2.55;1.70;;;;;;;22.29;33.03;100578.31;10447173;28;20030;-60
2023/05/25 15:50:44;;;;;;;3.03;1.70;;;;;;;21.99;32.47;100575.97;10305739;28;20046;-60
2023/05/25 15:55:46;;;;;;;3.10;1.70;;;;;;;21.94;32.92;100570.25;10322378;28;20054;-60
2023/05/25 16:00:48;;;;;;;3.08;1.70;;;;;;;21.87;33.46;100562.03;10346955;28;20063;-60
2023/05/25 16:05:50;;;;;;;3.10;1.77;;;;;;;22.02;33.67;100575.69;10426181;28;20039;-60
2023/05/25 16:10:52;;;;;;;2.58;1.50;;;;;;;21.75;33.46;100578.34;10467759;28;20042;-60
2023/05/25 16:15:54;;;;;;;2.95;1.50;;;;;;;21.82;33.99;100574.13;10366014;28;20054;-60
2023/05/25 16:20:56;;;;;;;2.70;1.48;;;;;;;21.92;33.99;100570.38;10327706;28;20065;-60
2023/05/25 16:25:58;;;;;;;4.40;1.50;;;;;;;21.81;34.61;100561.78;10334855;28;20129;-60
2023/05/25 16:31:00;;;;;;;2.20;1.50;;;;;;;21.71;33.60;100574.28;10299755;28;20454;-60
2023/05/25 16:36:02;;;;;;;4.18;1.80;;;;;;;21.84;33.85;100569.47;10342916;28;20046;-60
2023/05/25 16:41:04;;;;;;;3.25;1.55;;;;;;;21.75;33.21;100571.19;10344338;28;20062;-60
2023/05/25 16:46:06;;;;;;;3.10;1.58;;;;;;;21.69;33.46;100571.78;10334561;28;20046;-60
2023/05/25 16:51:13;;;;;;;3.78;1.60;;;;;;;21.69;33.73;100574.44;10320859;28;20100;-60
2023/05/25 16:56:15;;;;;;;4.82;1.70;;;;;;;21.77;33.96;100569.22;10418918;28;20042;-60
2023/05/25 17:01:18;;;;;;;3.95;2.00;;;;;;;21.65;34.77;100578.38;10368300;28;20052;-61
2023/05/25 17:06:20;;;;;;;2.53;1.52;;;;;;;21.64;34.90;100570.56;10314951;28;20096;-60
2023/05/25 17:11:25;;;;;;;2.55;1.60;;;;;;;21.42;35.10;100573.56;10350705;28;20049;-60
2023/05/25 17:16:27;;;;;;;3.63;1.75;;;;;;;21.22;35.44;100579.91;10338757;28;20484;-60
2023/05/25 17:21:29;;;;;;;4.47;2.00;;;;;;;21.10;35.00;100576.56;10376209;28;20042;-60
2023/05/25 17:26:32;;;;;;;2.92;1.70;;;;;;;20.99;35.40;100580.22;10319536;28;20091;-60
2023/05/25 17:31:33;;;;;;;3.67;1.80;;;;;;;20.73;35.53;100592.44;10312720;28;20506;-60
2023/05/25 17:36:36;;;;;;;3.60;1.80;;;;;;;20.59;35.73;100592.00;10402814;28;20081;-60
2023/05/25 17:41:38;;;;;;;2.90;1.80;;;;;;;20.47;35.78;100590.41;10417727;28;20045;-60
2023/05/25 17:46:40;;;;;;;3.83;1.92;;;;;;;20.19;35.90;100594.72;10305091;28;20518;-60
2023/05/25 17:51:42;;;;;;;3.10;2.00;;;;;;;19.91;36.29;100603.47;10292647;28;20153;-60
2023/05/25 17:56:45;;;;;;;2.70;1.65;;;;;;;19.80;36.80;100609.69;10297432;28;20049;-60
2023/05/25 18:01:47;;;;;;;3.85;2.10;;;;;;;19.53;37.14;100619.16;10328806;28;20054;-61
2023/05/25 18:06:50;;;;;;;3.15;1.73;;;;;;;19.08;37.90;100626.56;10309990;28;20127;-61
2023/05/25 18:11:52;;;;;;;5.18;1.75;;;;;;;19.16;37.61;100630.28;10310917;28;20049;-60
2023/05/25 18:16:56;;;;;;;3.20;1.73;;;;;;;19.18;38.35;100640.75;10311367;28;20050;-60
2023/05/25 18:21:58;;;;;;;4.53;1.60;;;;;;;18.83;38.67;100645.47;10295121;28;20490;-60
2023/05/25 18:27:02;;;;;;;6.93;1.88;;;;;;;18.60;39.23;100652.66;10317396;28;20054;-60
2023/05/25 18:32:04;;;;;;;3.45;1.65;;;;;;;18.23;40.09;100651.31;10306621;28;20050;-60
2023/05/25 18:37:07;;;;;;;2.83;1.80;;;;;;;17.93;40.07;100651.06;10290120;28;20050;-60
2023/05/25 18:42:09;;;;;;;3.78;2.10;;;;;;;17.65;40.68;100663.78;10294495;28;20050;-60
2023/05/25 18:47:11;;;;;;;4.40;2.38;;;;;;;17.55;40.61;100681.34;10302248;28;20047;-60
2023/05/25 18:52:13;;;;;;;6.03;2.15;;;;;;;17.31;40.94;100669.94;10296946;28;20042;-60
2023/05/25 18:57:15;;;;;;;4.90;1.73;;;;;;;17.26;41.09;100672.09;10381349;28;20049;-60
2023/05/25 19:02:17;;;;;;;3.90;1.80;;;;;;;17.19;41.79;100678.81;10334667;28;20049;-60
2023/05/25 19:07:19;;;;;;;2.50;1.90;;;;;;;17.16;41.82;100686.13;10302838;28;20051;-60
2023/05/25 19:12:21;;;;;;;2.95;1.65;;;;;;;16.97;42.16;100689.31;10322330;28;20141;-60
2023/05/25 19:17:23;;;;;;;2.70;1.63;;;;;;;16.81;42.37;100701.97;10361144;28;20410;-60
2023/05/25 19:22:25;;;;;;;3.47;1.95;;;;;;;16.67;42.72;100704.78;10313644;28;20391;-60
2023/05/25 19:27:27;;;;;;;4.60;1.85;;;;;;;16.58;42.97;100718.63;10307104;28;20050;-60
2023/05/25 19:32:29;;;;;;;3.67;1.80;;;;;;;16.54;43.10;100719.81;10307219;28;20047;-60
2023/05/25 19:37:31;;;;;;;3.85;1.90;;;;;;;16.34;43.09;100731.78;10318108;28;20501;-59
2023/05/25 19:42:34;;;;;;;3.15;1.70;;;;;;;16.14;43.29;100733.16;10285835;28;20060;-59
2023/05/25 19:47:36;;;;;;;2.97;1.80;;;;;;;16.02;43.47;100741.94;10302674;28;20039;-59
2023/05/25 19:52:37;;;;;;;4.30;1.90;;;;;;;15.94;43.57;100752.16;10302572;28;20486;-59
2023/05/25 19:57:39;;;;;;;4.03;2.03;;;;;;;15.87;43.94;100755.34;10322260;28;20066;-59
2023/05/25 20:02:41;;;;;;;4.57;1.70;;;;;;;15.78;43.97;100761.22;10332932;28;20054;-59
2023/05/25 20:07:44;;;;;;;3.90;1.90;;;;;;;15.46;44.20;100766.00;10344603;28;20046;-59
2023/05/25 20:12:46;;;;;;;3.55;1.83;;;;;;;15.27;44.77;100779.56;10466581;28;20044;-59
2023/05/25 20:17:47;;;;;;;4.93;2.35;;;;;;;15.27;45.11;100790.09;10362718;28;20053;-59
2023/05/25 20:22:49;;;;;;;4.65;2.38;;;;;;;15.18;44.79;100787.25;10418825;28;20050;-59
2023/05/25 20:27:51;;;;;;;3.85;1.95;;;;;;;15.24;45.06;100782.41;10340818;28;20037;-59
2023/05/25 20:32:53;;;;;;;7.53;2.17;;;;;;;15.10;45.21;100785.06;10332140;28;20045;-59
2023/05/25 20:37:55;;;;;;;4.60;1.98;;;;;;;15.03;45.40;100790.84;10344290;28;20076;-59
2023/05/25 20:42:57;;;;;;;2.95;1.90;;;;;;;15.00;45.37;100801.59;10310715;28;20050;-59
2023/05/25 20:48:01;;;;;;;3.50;1.80;;;;;;;14.96;45.63;100808.00;10307624;28;20046;-59
2023/05/25 20:53:03;;;;;;;3.67;2.00;;;;;;;14.87;46.10;100813.84;10287198;28;20054;-59
2023/05/25 20:58:05;;;;;;;3.85;2.00;;;;;;;14.75;45.90;100812.00;10297323;28;20038;-59
2023/05/25 21:03:07;;;;;;;4.20;1.90;;;;;;;14.57;46.23;100824.53;10289903;28;20509;-59
2023/05/25 21:08:10;;;;;;;5.55;1.80;;;;;;;14.51;46.68;100823.09;10320603;28;20212;-59
2023/05/25 21:13:12;;;;;;;4.10;2.20;;;;;;;14.39;46.73;100836.16;10415389;28;20515;-59
2023/05/25 21:18:13;;;;;;;4.95;2.42;;;;;;;14.25;47.04;100836.13;10321975;28;20051;-59
2023/05/25 21:23:15;;;;;;;4.93;2.20;;;;;;;14.18;46.91;100834.81;10321299;28;20065;-59
2023/05/25 21:28:17;;;;;;;4.10;1.83;;;;;;;14.04;47.00;100840.06;10323428;28;20046;-59
2023/05/25 21:33:19;;;;;;;5.10;2.50;;;;;;;13.96;47.44;100845.78;10319753;28;20053;-59
2023/05/25 21:38:21;;;;;;;3.97;2.13;;;;;;;13.95;47.49;100851.13;10274660;28;20065;-59
2023/05/25 21:43:27;;;;;;;7.55;2.45;;;;;;;13.82;47.72;100853.63;10347880;28;20111;-59
2023/05/25 21:48:28;;;;;;;4.22;2.20;;;;;;;13.81;47.83;100857.19;10306630;28;20042;-59
2023/05/25 21:53:30;;;;;;;6.07;2.20;;;;;;;13.62;48.36;100860.03;10335560;28;20084;-59
2023/05/25 21:58:32;;;;;;;3.90;1.92;;;;;;;13.59;48.32;100862.00;10280941;28;20043;-59
2023/05/25 22:03:34;;;;;;;4.25;2.30;;;;;;;13.58;48.53;100855.03;10295722;28;20046;-59
2023/05/25 22:08:36;;;;;;;4.40;2.22;;;;;;;13.32;48.69;100860.91;10286923;28;20046;-59
2023/05/25 22:13:38;;;;;;;5.18;2.30;;;;;;;13.09;48.87;100862.19;10316008;28;20047;-59
2023/05/25 22:18:40;;;;;;;6.22;2.30;;;;;;;12.96;49.50;100855.94;10276611;28;20529;-59
2023/05/25 22:23:42;;;;;;;7.82;2.50;;;;;;;13.02;49.52;100858.22;10335296;28;20130;-59
2023/05/25 22:28:44;;;;;;;3.58;2.10;;;;;;;12.98;49.63;100855.84;10292897;28;20046;-59
2023/05/25 22:33:45;;;;;;;3.45;1.92;;;;;;;12.80;50.00;100866.41;10272687;28;20046;-59
2023/05/25 22:38:47;;;;;;;4.90;2.05;;;;;;;12.46;50.68;100865.66;10342568;28;20414;-59
2023/05/25 22:43:49;;;;;;;6.03;2.42;;;;;;;12.30;50.85;100870.00;10324196;28;20074;-59
2023/05/25 22:48:51;;;;;;;4.00;2.53;;;;;;;12.13;51.36;100878.72;10321995;28;20046;-58
2023/05/25 22:53:53;;;;;;;4.07;2.45;;;;;;;12.23;51.41;100890.47;10507378;28;20040;-58
2023/05/25 22:58:54;;;;;;;4.45;2.30;;;;;;;12.07;52.00;100887.75;10416158;28;20556;-59
2023/05/25 23:03:58;;;;;;;3.65;2.08;;;;;;;11.97;52.18;100885.66;10339311;28;20049;-59
2023/05/25 23:09:00;;;;;;;5.80;2.08;;;;;;;11.92;52.49;100882.44;10360260;28;20054;-59
2023/05/25 23:14:02;;;;;;;3.20;2.00;;;;;;;11.89;52.60;100885.19;10426425;28;20046;-59
2023/05/25 23:19:05;;;;;;;4.43;2.20;;;;;;;11.94;52.73;100881.44;10358821;28;20078;-59